This is the latest recevied weather packets stored in our database for station/object KF6RAL-6. If no packets are shown the sender has not sent any weather packets the latest 10 day(s).
| Time | Temp. | Humidity | Pressure | Rain* | Wind** | Luminosity | Snow |
|---|---|---|---|---|---|---|---|
| 1777766850 | 20.56° C | 42% | 1014.1 hPa | 0 mm | - | - | - |
| 1777766429 | 20.56° C | 34% | 1014.2 hPa | 0 mm | - | - | - |
| 1777766010 | 20.56° C | 30% | 1014.3 hPa | 0 mm | - | - | - |
| 1777765587 | 20.56° C | 32% | 1014.3 hPa | 0 mm | - | - | - |
| 1777765166 | 21.11° C | 33% | 1014.2 hPa | 0 mm | - | - | - |
| 1777764745 | 21.11° C | 33% | 1014.2 hPa | 0 mm | - | - | - |
| 1777764324 | 20.56° C | 34% | 1014.4 hPa | 0 mm | - | - | - |
| 1777763061 | 21.11° C | 32% | 1014.7 hPa | 0 mm | - | - | - |
| 1777762640 | 20.56° C | 34% | 1014.9 hPa | 0 mm | - | - | - |
| 1777762219 | 20° C | 36% | 1015.2 hPa | 0 mm | - | - | - |
| 1777761798 | 20.56° C | 32% | 1014.7 hPa | 0 mm | - | - | - |
| 1777761377 | 20° C | 44% | 1015.5 hPa | 0 mm | - | - | - |
| 1777760955 | 20° C | 42% | 1015.7 hPa | 0 mm | - | - | - |
| 1777760535 | 20° C | 42% | 1015.8 hPa | 0 mm | - | - | - |
| 1777760115 | 19.44° C | 41% | 1015.4 hPa | 0 mm | - | - | - |
| 1777759693 | 19.44° C | 39% | 1015.5 hPa | 0 mm | - | - | - |
| 1777759271 | 18.89° C | 47% | 1015.6 hPa | 0 mm | - | - | - |
| 1777758850 | 18.89° C | 45% | 1015.8 hPa | 0 mm | - | - | - |
| 1777758430 | 18.33° C | 51% | 1016.1 hPa | 0 mm | - | - | - |
| 1777758010 | 18.33° C | 48% | 1016.2 hPa | 0 mm | - | - | - |
| 1777757587 | 18.89° C | 48% | 1016 hPa | 0 mm | - | - | - |
| 1777757167 | 18.89° C | 48% | 1016.1 hPa | 0 mm | - | - | - |
| 1777756326 | 17.78° C | 56% | 1016.6 hPa | 0 mm | - | - | - |
| 1777755904 | 18.33° C | 51% | 1016.7 hPa | 0 mm | - | - | - |
| 1777755482 | 18.33° C | 51% | 1016.7 hPa | 0 mm | - | - | - |
* Rain latest hour (hover to see other rain measurements)
** Current wind speed in m/s (hover to see current wind gust speed)